Terminal Aerodrome Forecast
Issued by NWS

Home | Current Version | Previous Version | Text Only | Print | Product List | Glossary On
Versions: 1 2 3 4 5 6 7 8 9 10 11 12 13 14 15 16 17 18 19 20 21 22 23 24 25
000
FTUS46 KLOX 311300 AAA
TAFSBP
TAF AMD
KSBP 311309Z 3113/0112 31006KT P6SM OVC005
     FM311600 31006KT P6SM SKC
     FM311900 31012KT P6SM SKC
     FM010100 32008KT P6SM SKC
     FM010500 31006KT P6SM OVC006=

USA.gov is the U.S. government's official web portal to all federal, state and local government web resources and services.